Coronhach, Canada
Current Conditions -  °F | °C
As of 11:04 AM on Friday 28 Nov 2014 (Local Time) from KOLF Reporting Station
Haze Haze  
Wind Chill:   Ceiling: 400
Heat Index: 20°   Visibility: 2.5mi
Dew Point: 18°   Wind: 9mph
Humidity: 92%   Direction: 70°ENE
Pressure: 29.57"   Gusts: NA
Location:  49.11°N, 105.51°W
Report Text: KOLF 281704Z AUTO 07008KT 2 1/2SM BR OVC004 M07/M08 A2957 RMK AO2 T10671078
Loading
Personal Weather Stations






























Interactive Weather Map New forecast layout! Learn more

10-Day Weather Forecast

Advertisements
Track Severe Weather on mobile